Time;durP1;ratioP1;P1;durP2;ratioP2;P2;SDS_P1;SDS_P2;PMS_P1;PMS_P2;Temp;Humidity;BMP_temperature;BMP_pressure;BME280_temperature;BME280_humidity;BME280_pressure;Samples;Min_cycle;Max_cycle;Signal;HPM_P1;HPM_P2
2022/01/05 00:01:51;;;;;;;5.07;1.40;;;19.50;94.10;;;;;;5047716;28;20559;-64
2022/01/05 00:04:16;;;;;;;5.18;1.33;;;19.50;96.00;;;;;;5042956;28;20706;-64
2022/01/05 00:06:42;;;;;;;4.90;1.27;;;19.50;94.10;;;;;;5061050;28;20056;-63
2022/01/05 00:09:07;;;;;;;8.07;1.52;;;19.50;94.90;;;;;;5073343;28;20060;-64
2022/01/05 00:11:33;;;;;;;5.35;1.33;;;19.50;95.20;;;;;;5034677;28;20528;-64
2022/01/05 00:13:58;;;;;;;5.10;1.30;;;19.50;95.70;;;;;;5044530;28;20060;-64
2022/01/05 00:16:24;;;;;;;6.28;1.70;;;19.40;94.60;;;;;;5041812;28;20451;-63
2022/01/05 00:18:49;;;;;;;5.93;1.48;;;19.50;94.60;;;;;;5042620;28;20029;-64
2022/01/05 00:21:15;;;;;;;6.45;1.35;;;19.40;96.30;;;;;;5032395;28;20518;-64
2022/01/05 00:23:40;;;;;;;5.32;1.30;;;19.40;95.70;;;;;;5044977;28;20025;-64
2022/01/05 00:26:06;;;;;;;5.20;1.35;;;19.40;96.10;;;;;;5032104;28;20022;-64
2022/01/05 00:28:31;;;;;;;5.13;1.40;;;19.40;96.20;;;;;;5076854;28;20041;-63
2022/01/05 00:30:57;;;;;;;5.35;1.38;;;19.40;96.90;;;;;;5036104;28;20497;-64
2022/01/05 00:33:22;;;;;;;5.80;1.42;;;19.40;96.60;;;;;;5024838;28;20052;-64
2022/01/05 00:35:48;;;;;;;4.60;1.33;;;19.30;97.20;;;;;;5069015;28;20526;-64
2022/01/05 00:38:13;;;;;;;5.03;0.98;;;19.30;96.50;;;;;;5063255;28;20030;-63
2022/01/05 00:40:39;;;;;;;4.65;1.20;;;19.30;97.50;;;;;;5063193;28;20053;-64
2022/01/05 00:43:04;;;;;;;5.72;1.10;;;19.30;97.40;;;;;;5027889;28;20022;-63
2022/01/05 00:45:30;;;;;;;4.85;1.08;;;19.30;97.10;;;;;;5028704;28;20057;-64
2022/01/05 00:47:55;;;;;;;5.60;1.20;;;19.30;96.40;;;;;;5025147;28;20399;-62
2022/01/05 00:50:21;;;;;;;5.50;1.30;;;19.30;96.30;;;;;;5031496;28;20025;-65
2022/01/05 00:52:46;;;;;;;5.72;1.17;;;19.30;97.60;;;;;;5028830;28;20049;-64
2022/01/05 00:55:12;;;;;;;4.80;1.20;;;19.30;97.80;;;;;;5029741;28;20157;-64
2022/01/05 00:57:37;;;;;;;4.88;1.30;;;19.30;97.70;;;;;;5044261;28;20079;-64
2022/01/05 01:00:04;;;;;;;4.65;1.10;;;19.20;97.30;;;;;;5029558;28;20525;-63
2022/01/05 01:02:29;;;;;;;4.75;1.10;;;19.30;97.80;;;;;;5032498;28;20044;-63
2022/01/05 01:04:55;;;;;;;5.55;1.35;;;19.20;96.50;;;;;;5057954;28;20029;-61
2022/01/05 01:07:20;;;;;;;4.07;0.90;;;19.20;97.20;;;;;;5029973;28;20087;-63
2022/01/05 01:09:46;;;;;;;5.18;1.25;;;19.30;97.10;;;;;;5030371;28;20087;-62
2022/01/05 01:12:11;;;;;;;4.90;1.30;;;19.30;96.90;;;;;;5026300;28;20021;-64
2022/01/05 01:14:37;;;;;;;4.90;1.30;;;19.20;97.30;;;;;;5032189;28;20395;-63
2022/01/05 01:17:03;;;;;;;4.57;1.10;;;19.20;97.40;;;;;;5079559;28;20044;-64
2022/01/05 01:19:28;;;;;;;6.43;1.30;;;19.20;96.60;;;;;;5029855;28;20100;-63
2022/01/05 01:21:55;;;;;;;5.22;1.33;;;19.20;98.50;;;;;;5032482;28;20028;-63
2022/01/05 01:24:20;;;;;;;4.50;1.05;;;19.20;97.50;;;;;;5027422;28;20071;-64
2022/01/05 01:26:46;;;;;;;5.10;1.08;;;19.20;97.10;;;;;;5030905;28;20026;-64
2022/01/05 01:29:11;;;;;;;5.93;1.33;;;19.20;97.30;;;;;;5027022;28;20438;-64
2022/01/05 01:31:37;;;;;;;4.60;1.20;;;19.20;98.10;;;;;;5022833;28;20034;-63
2022/01/05 01:34:02;;;;;;;5.70;1.40;;;19.20;97.30;;;;;;5015239;28;20080;-63
2022/01/05 01:36:28;;;;;;;4.63;1.02;;;19.20;97.10;;;;;;5030239;28;20075;-63
2022/01/05 01:38:53;;;;;;;4.60;1.08;;;19.20;97.20;;;;;;5044519;28;20045;-64
2022/01/05 01:41:19;;;;;;;4.57;1.23;;;19.20;96.80;;;;;;5026162;28;20018;-63
2022/01/05 01:43:45;;;;;;;4.95;1.00;;;19.20;97.40;;;;;;5056311;28;20029;-62
2022/01/05 01:46:10;;;;;;;4.25;0.90;;;19.20;96.90;;;;;;5022930;28;20025;-64
2022/01/05 01:48:36;;;;;;;5.60;1.27;;;19.20;96.60;;;;;;5061852;28;20034;-64
2022/01/05 01:51:02;;;;;;;4.43;0.90;;;19.20;96.30;;;;;;5026707;28;20029;-61
2022/01/05 01:53:27;;;;;;;4.45;1.08;;;19.20;96.20;;;;;;5027743;28;20763;-63
2022/01/05 01:55:53;;;;;;;5.30;1.20;;;19.20;96.50;;;;;;5029657;28;20017;-62
2022/01/05 01:58:19;;;;;;;4.07;1.05;;;19.20;95.20;;;;;;5035579;28;20107;-64
2022/01/05 02:00:44;;;;;;;4.95;1.30;;;19.20;97.10;;;;;;5074694;28;20033;-63
2022/01/05 02:03:12;;;;;;;5.63;1.10;;;19.20;97.50;;;;;;5026021;28;20483;-63
2022/01/05 02:05:37;;;;;;;4.57;1.02;;;19.20;96.50;;;;;;5063087;28;20040;-61
2022/01/05 02:08:03;;;;;;;5.43;1.15;;;19.20;97.10;;;;;;5022319;28;20415;-61
2022/01/05 02:10:29;;;;;;;4.93;1.10;;;19.20;95.90;;;;;;5054395;28;20060;-63
2022/01/05 02:12:54;;;;;;;5.13;1.15;;;19.20;96.30;;;;;;5053927;28;20561;-63
2022/01/05 02:15:21;;;;;;;5.50;1.40;;;19.20;96.30;;;;;;5021492;28;20033;-63
2022/01/05 02:17:56;;;;;;;4.88;1.10;;;19.20;96.40;;;;;;5022231;28;20026;-62
2022/01/05 02:20:25;;;;;;;4.45;1.05;;;19.20;96.80;;;;;;5051176;28;20033;-63
2022/01/05 02:22:51;;;;;;;4.45;1.02;;;19.10;95.90;;;;;;5022174;28;20078;-63
2022/01/05 02:25:17;;;;;;;5.00;1.08;;;19.20;96.00;;;;;;5057497;28;20486;-63
2022/01/05 02:27:43;;;;;;;4.63;1.20;;;19.20;95.00;;;;;;5038931;28;20487;-64
2022/01/05 02:30:10;;;;;;;5.05;1.00;;;19.20;96.00;;;;;;5072416;28;20026;-63
2022/01/05 02:32:35;;;;;;;4.28;0.98;;;19.20;94.70;;;;;;5023311;28;20109;-62
2022/01/05 02:35:01;;;;;;;4.47;1.00;;;19.20;95.50;;;;;;5069806;28;21359;-63
2022/01/05 02:37:26;;;;;;;4.55;1.30;;;19.20;94.00;;;;;;5040066;28;20038;-63
2022/01/05 02:39:52;;;;;;;4.60;1.20;;;19.20;94.50;;;;;;5020748;28;20037;-63
2022/01/05 02:42:25;;;;;;;4.65;1.10;;;19.20;95.90;;;;;;5025037;28;20075;-63
2022/01/05 02:44:51;;;;;;;4.38;1.02;;;19.20;94.60;;;;;;5023463;28;20028;-64
2022/01/05 02:47:16;;;;;;;4.55;1.00;;;19.20;95.60;;;;;;5024350;28;20300;-62
2022/01/05 02:49:42;;;;;;;4.53;0.90;;;19.20;95.40;;;;;;5024918;28;20040;-63
2022/01/05 02:52:07;;;;;;;4.63;1.13;;;19.20;95.50;;;;;;5020071;28;20032;-63
2022/01/05 02:54:33;;;;;;;5.40;1.23;;;19.20;95.20;;;;;;5037530;28;20025;-64
2022/01/05 02:56:58;;;;;;;4.22;0.98;;;19.20;94.90;;;;;;5020908;28;20491;-63
2022/01/05 02:59:24;;;;;;;4.90;1.00;;;19.20;95.60;;;;;;5034589;28;20614;-62
2022/01/05 03:01:49;;;;;;;4.25;0.90;;;19.20;94.70;;;;;;5024329;28;20033;-63
2022/01/05 03:04:15;;;;;;;4.32;0.95;;;19.20;95.10;;;;;;5023588;28;20534;-63
2022/01/05 03:06:40;;;;;;;5.10;1.10;;;19.20;95.20;;;;;;5034640;28;20036;-64
2022/01/05 03:09:06;;;;;;;4.82;1.00;;;19.20;94.80;;;;;;5037979;28;20045;-62
2022/01/05 03:11:31;;;;;;;3.80;0.82;;;19.20;94.90;;;;;;5023603;28;20038;-63
2022/01/05 03:13:57;;;;;;;4.13;1.05;;;19.10;93.70;;;;;;5033363;28;20133;-64
2022/01/05 03:16:22;;;;;;;4.18;1.00;;;19.20;93.90;;;;;;5025556;28;20495;-64
2022/01/05 03:18:48;;;;;;;5.30;1.10;;;19.20;94.90;;;;;;5023042;28;20196;-63
2022/01/05 03:21:13;;;;;;;4.72;0.90;;;19.10;95.00;;;;;;5031218;28;20021;-64
2022/01/05 03:23:39;;;;;;;4.85;0.93;;;19.20;93.80;;;;;;5060534;28;20057;-63
2022/01/05 03:26:04;;;;;;;5.25;0.93;;;19.20;94.60;;;;;;5031200;28;20056;-63
2022/01/05 03:28:30;;;;;;;4.13;0.90;;;19.20;93.80;;;;;;5031742;28;20026;-62
2022/01/05 03:30:55;;;;;;;4.40;1.00;;;19.20;94.50;;;;;;5025957;28;20025;-64
2022/01/05 03:33:21;;;;;;;5.38;1.00;;;19.10;94.00;;;;;;5028789;28;20029;-64
2022/01/05 03:35:47;;;;;;;4.20;1.10;;;19.10;94.70;;;;;;5019361;28;20025;-61
2022/01/05 03:38:15;;;;;;;4.53;1.08;;;19.10;94.10;;;;;;5020833;28;20076;-64
2022/01/05 03:40:41;;;;;;;4.60;1.10;;;19.10;94.80;;;;;;5053453;28;20104;-64
2022/01/05 03:43:07;;;;;;;4.57;1.15;;;19.20;94.60;;;;;;5021077;28;20053;-63
2022/01/05 03:45:34;;;;;;;4.85;1.23;;;19.20;94.00;;;;;;5049913;28;20021;-65
2022/01/05 03:48:00;;;;;;;4.85;1.10;;;19.20;94.80;;;;;;5021250;28;21046;-65
2022/01/05 03:50:25;;;;;;;4.55;1.05;;;19.20;95.20;;;;;;5019717;28;20033;-64
2022/01/05 03:52:51;;;;;;;4.75;1.10;;;19.20;93.60;;;;;;5027245;28;20037;-63
2022/01/05 03:55:16;;;;;;;4.50;1.05;;;19.10;94.30;;;;;;5022307;28;20034;-63
2022/01/05 03:57:42;;;;;;;4.32;1.10;;;19.20;93.90;;;;;;5053880;28;20033;-65
2022/01/05 04:00:08;;;;;;;4.57;1.27;;;19.20;94.30;;;;;;5023071;28;20025;-64
2022/01/05 04:02:33;;;;;;;4.03;1.10;;;19.20;94.10;;;;;;5052429;28;20053;-64
2022/01/05 04:04:59;;;;;;;6.35;1.15;;;19.20;93.30;;;;;;5026558;28;20112;-64
2022/01/05 04:07:24;;;;;;;4.30;1.20;;;19.20;94.50;;;;;;5072469;28;20517;-65
2022/01/05 04:09:50;;;;;;;3.72;0.88;;;19.20;93.00;;;;;;5024977;28;20033;-64
2022/01/05 04:12:15;;;;;;;3.90;0.90;;;19.20;93.70;;;;;;5030099;28;20033;-65
2022/01/05 04:14:42;;;;;;;5.07;1.08;;;19.20;93.10;;;;;;5026739;28;20030;-64
2022/01/05 04:17:07;;;;;;;3.97;0.90;;;19.20;93.50;;;;;;5062520;28;20060;-65
2022/01/05 04:19:33;;;;;;;3.67;0.80;;;19.20;93.10;;;;;;5024634;28;20049;-65
2022/01/05 04:21:58;;;;;;;5.35;1.08;;;19.20;94.00;;;;;;5033021;28;20097;-64
2022/01/05 04:24:24;;;;;;;4.50;1.17;;;19.20;93.10;;;;;;5028393;28;20407;-64
2022/01/05 04:26:49;;;;;;;5.45;1.10;;;19.20;93.50;;;;;;5035252;28;20017;-65
2022/01/05 04:29:15;;;;;;;4.82;1.25;;;19.20;92.70;;;;;;5025315;28;20452;-63
2022/01/05 04:31:40;;;;;;;4.15;1.00;;;19.20;93.30;;;;;;5074960;28;20036;-65
2022/01/05 04:34:06;;;;;;;5.28;1.10;;;19.20;92.30;;;;;;5029183;28;20036;-64
2022/01/05 04:36:31;;;;;;;5.03;1.00;;;19.20;93.10;;;;;;5008180;28;20022;-65
2022/01/05 04:38:57;;;;;;;4.18;1.05;;;19.20;93.30;;;;;;5027357;28;20037;-65
2022/01/05 04:41:22;;;;;;;4.80;0.95;;;19.20;93.10;;;;;;5032333;28;20085;-65
2022/01/05 04:43:48;;;;;;;4.47;1.02;;;19.20;92.80;;;;;;5026023;28;20025;-63
2022/01/05 04:46:13;;;;;;;4.07;0.90;;;19.20;93.50;;;;;;5062491;28;20491;-65
2022/01/05 04:48:39;;;;;;;5.10;1.10;;;19.20;91.80;;;;;;5035676;28;20040;-65
2022/01/05 04:51:04;;;;;;;4.00;1.05;;;19.20;92.80;;;;;;5032330;28;20033;-63
2022/01/05 04:53:30;;;;;;;4.68;1.38;;;19.20;92.70;;;;;;5027137;28;20030;-65
2022/01/05 04:55:55;;;;;;;5.28;1.30;;;19.20;93.10;;;;;;5027134;28;20446;-62
2022/01/05 04:58:21;;;;;;;4.28;0.95;;;19.20;93.40;;;;;;5063626;28;20108;-65
2022/01/05 05:00:46;;;;;;;4.30;1.10;;;19.20;92.00;;;;;;5039225;28;20034;-65
2022/01/05 05:03:12;;;;;;;5.82;1.20;;;19.20;93.10;;;;;;5045718;28;20030;-64
2022/01/05 05:05:38;;;;;;;4.25;1.05;;;19.20;93.30;;;;;;5031567;28;20061;-65
2022/01/05 05:08:03;;;;;;;4.40;0.90;;;19.20;93.80;;;;;;5038035;28;20020;-65
2022/01/05 05:10:29;;;;;;;4.63;1.30;;;19.20;92.90;;;;;;5025790;28;20033;-64
2022/01/05 05:12:54;;;;;;;5.68;1.17;;;19.20;92.50;;;;;;5029760;28;20549;-64
2022/01/05 05:15:20;;;;;;;4.40;0.80;;;19.20;93.20;;;;;;5031000;28;20052;-65
2022/01/05 05:17:45;;;;;;;4.05;0.85;;;19.20;92.00;;;;;;5046316;28;20112;-64
2022/01/05 05:20:11;;;;;;;4.20;0.93;;;19.20;92.40;;;;;;5031700;28;20056;-65
2022/01/05 05:22:37;;;;;;;4.95;1.02;;;19.20;91.80;;;;;;5064080;28;20061;-64
2022/01/05 05:25:03;;;;;;;3.70;1.00;;;19.20;92.20;;;;;;5032747;28;20091;-64
2022/01/05 05:27:29;;;;;;;4.38;1.20;;;19.20;92.50;;;;;;5026545;28;20022;-65
2022/01/05 05:29:55;;;;;;;3.65;0.80;;;19.20;92.30;;;;;;5042760;28;20578;-64
2022/01/05 05:32:20;;;;;;;3.55;0.82;;;19.20;92.70;;;;;;5034359;28;20029;-64
2022/01/05 05:34:46;;;;;;;5.32;1.40;;;19.20;92.20;;;;;;5036089;28;20030;-64
2022/01/05 05:37:11;;;;;;;4.95;0.80;;;19.20;91.90;;;;;;5030334;28;20376;-64
2022/01/05 05:39:36;;;;;;;5.53;1.20;;;19.20;92.10;;;;;;5027559;28;20069;-64
2022/01/05 05:42:02;;;;;;;4.78;0.90;;;19.20;92.40;;;;;;5032680;28;20116;-64
2022/01/05 05:44:28;;;;;;;5.13;1.25;;;19.20;92.50;;;;;;5057008;28;20041;-64
2022/01/05 05:46:53;;;;;;;4.43;0.90;;;19.20;92.40;;;;;;5031410;28;20033;-64
2022/01/05 05:49:19;;;;;;;4.88;1.00;;;19.20;93.20;;;;;;5053208;22;20048;-60
2022/01/05 05:51:44;;;;;;;4.07;0.90;;;19.20;93.20;;;;;;5046140;28;20070;-61
2022/01/05 05:54:10;;;;;;;4.45;1.10;;;19.20;92.20;;;;;;5045366;28;20058;-60
2022/01/05 05:56:35;;;;;;;3.95;0.98;;;19.20;92.00;;;;;;5030978;28;20101;-61
2022/01/05 05:59:01;;;;;;;5.35;1.38;;;19.20;91.80;;;;;;5066252;28;20090;-60
2022/01/05 06:01:27;;;;;;;4.63;1.10;;;19.20;92.10;;;;;;5062998;28;20557;-61
2022/01/05 06:03:53;;;;;;;4.57;1.00;;;19.20;92.50;;;;;;5060945;28;20079;-61
2022/01/05 06:06:18;;;;;;;4.75;1.23;;;19.20;92.40;;;;;;5062758;28;20013;-61
2022/01/05 06:08:44;;;;;;;4.53;1.23;;;19.20;92.70;;;;;;5050920;28;20416;-61
2022/01/05 06:11:09;;;;;;;4.75;1.10;;;19.20;93.80;;;;;;5064343;28;20525;-61
2022/01/05 06:13:35;;;;;;;5.65;1.10;;;19.20;92.60;;;;;;5060002;28;20066;-61
2022/01/05 06:16:00;;;;;;;4.45;1.08;;;19.20;92.60;;;;;;5042864;28;20112;-61
2022/01/05 06:18:26;;;;;;;4.55;0.90;;;19.30;91.90;;;;;;5044366;28;20074;-60
2022/01/05 06:20:52;;;;;;;4.78;1.20;;;19.30;91.70;;;;;;5061025;28;20052;-61
2022/01/05 06:23:17;;;;;;;5.25;1.10;;;19.20;92.20;;;;;;5058005;28;20045;-61
2022/01/05 06:25:43;;;;;;;5.05;1.08;;;19.30;93.20;;;;;;5060924;28;20037;-61
2022/01/05 06:28:11;;;;;;;4.68;1.00;;;19.30;92.20;;;;;;5059672;28;20028;-62
2022/01/05 06:30:38;;;;;;;4.45;0.90;;;19.30;92.80;;;;;;5063589;28;20025;-62
2022/01/05 06:33:04;;;;;;;4.35;1.00;;;19.30;91.90;;;;;;5059670;28;20031;-62
2022/01/05 06:35:29;;;;;;;5.35;1.15;;;19.30;92.30;;;;;;5059709;28;20024;-61
2022/01/05 06:37:55;;;;;;;4.32;0.90;;;19.30;91.80;;;;;;5045132;28;20028;-62
2022/01/05 06:40:20;;;;;;;4.07;0.90;;;19.30;91.80;;;;;;5060795;28;20024;-62
2022/01/05 06:42:46;;;;;;;5.13;1.15;;;19.30;92.20;;;;;;5063107;28;20036;-62
2022/01/05 06:45:11;;;;;;;5.03;1.10;;;19.30;92.60;;;;;;5057673;28;20070;-60
2022/01/05 06:47:37;;;;;;;5.15;1.10;;;19.30;91.40;;;;;;5060417;28;20036;-61
2022/01/05 06:50:03;;;;;;;4.18;1.00;;;19.30;92.20;;;;;;5044928;28;20548;-61
2022/01/05 06:52:28;;;;;;;4.05;1.00;;;19.30;92.80;;;;;;5058940;28;20119;-61
2022/01/05 06:54:54;;;;;;;4.18;0.95;;;19.30;92.30;;;;;;5059826;28;20028;-62
2022/01/05 06:57:19;;;;;;;4.82;1.00;;;19.30;92.60;;;;;;5060839;28;20028;-62
2022/01/05 06:59:45;;;;;;;4.50;1.00;;;19.30;93.20;;;;;;5043405;28;20029;-62
2022/01/05 07:02:10;;;;;;;4.25;0.90;;;19.30;93.10;;;;;;5060783;28;20405;-61
2022/01/05 07:04:36;;;;;;;3.53;0.77;;;19.30;92.00;;;;;;5059775;28;20023;-61
2022/01/05 07:07:01;;;;;;;4.93;1.00;;;19.30;92.20;;;;;;5059267;28;20036;-61
2022/01/05 07:09:27;;;;;;;4.22;0.77;;;19.30;92.80;;;;;;5062217;28;20036;-61
2022/01/05 07:11:52;;;;;;;5.13;1.35;;;19.30;91.80;;;;;;5027754;28;20035;-62
2022/01/05 07:14:18;;;;;;;4.43;0.90;;;19.30;92.70;;;;;;5060640;28;20028;-61
2022/01/05 07:16:43;;;;;;;4.63;1.00;;;19.30;92.20;;;;;;5059556;28;20052;-62
2022/01/05 07:19:09;;;;;;;5.45;1.10;;;19.30;92.70;;;;;;5060278;28;21071;-60
2022/01/05 07:21:35;;;;;;;4.18;0.90;;;19.30;92.10;;;;;;5059458;28;20028;-62
2022/01/05 07:24:01;;;;;;;3.90;0.93;;;19.30;92.30;;;;;;5059067;28;20393;-60
2022/01/05 07:26:27;;;;;;;4.18;0.93;;;19.30;92.50;;;;;;5058495;28;20036;-61
2022/01/05 07:28:53;;;;;;;4.80;1.15;;;19.30;92.30;;;;;;5044328;28;20386;-62
2022/01/05 07:31:19;;;;;;;4.57;0.98;;;19.40;92.50;;;;;;5061749;28;20485;-61
2022/01/05 07:33:45;;;;;;;4.05;1.00;;;19.30;92.50;;;;;;5060623;28;20025;-62
2022/01/05 07:36:10;;;;;;;4.00;0.70;;;19.40;92.30;;;;;;5039535;28;20028;-61
2022/01/05 07:38:36;;;;;;;4.35;0.90;;;19.30;92.60;;;;;;5061957;28;20155;-61
2022/01/05 07:41:01;;;;;;;5.40;0.98;;;19.30;92.10;;;;;;5055234;28;20024;-61
2022/01/05 07:43:27;;;;;;;4.40;1.10;;;19.40;91.80;;;;;;5065467;28;20581;-61
2022/01/05 07:45:53;;;;;;;4.38;1.00;;;19.30;92.00;;;;;;5053187;28;20032;-62
2022/01/05 07:48:19;;;;;;;4.80;0.82;;;19.40;92.30;;;;;;5069027;28;20047;-62
2022/01/05 07:50:44;;;;;;;4.28;0.90;;;19.40;91.20;;;;;;5071840;28;20115;-61
2022/01/05 07:53:10;;;;;;;4.00;1.10;;;19.40;92.10;;;;;;5076667;28;20078;-61
2022/01/05 07:55:37;;;;;;;4.32;0.90;;;19.40;91.60;;;;;;5072513;28;20090;-60
2022/01/05 07:58:02;;;;;;;5.43;1.40;;;19.40;92.30;;;;;;5056289;28;20097;-61
2022/01/05 08:00:28;;;;;;;4.68;0.98;;;19.40;91.90;;;;;;5058777;28;20029;-61
2022/01/05 08:02:53;;;;;;;5.13;0.90;;;19.30;92.20;;;;;;5068740;28;20025;-61
2022/01/05 08:05:19;;;;;;;5.38;1.20;;;19.30;93.10;;;;;;5047412;28;20052;-61
2022/01/05 08:07:45;;;;;;;3.63;0.80;;;19.30;93.00;;;;;;5064877;28;21945;-61
2022/01/05 08:10:10;;;;;;;6.28;0.88;;;19.30;94.10;;;;;;5048666;28;20107;-60
2022/01/05 08:12:36;;;;;;;5.25;1.10;;;19.20;93.60;;;;;;5071046;28;20052;-60
2022/01/05 08:15:01;;;;;;;5.15;1.30;;;19.20;93.60;;;;;;5041122;28;20091;-60
2022/01/05 08:17:27;;;;;;;4.00;1.00;;;19.20;93.20;;;;;;5064379;28;20099;-61
2022/01/05 08:19:52;;;;;;;4.93;1.00;;;19.20;93.70;;;;;;5050366;28;20409;-60
2022/01/05 08:22:18;;;;;;;4.63;1.00;;;19.20;92.80;;;;;;5073421;28;20062;-60
2022/01/05 08:24:44;;;;;;;4.57;1.08;;;19.20;93.10;;;;;;5070715;28;20074;-61
2022/01/05 08:27:09;;;;;;;5.25;1.10;;;19.20;93.70;;;;;;5040969;28;20021;-61
2022/01/05 08:29:35;;;;;;;4.10;0.90;;;19.20;93.60;;;;;;5072033;28;20031;-61
2022/01/05 08:32:02;;;;;;;5.68;1.27;;;19.20;94.50;;;;;;5073546;28;20032;-61
2022/01/05 08:34:31;;;;;;;4.70;0.90;;;19.20;94.30;;;;;;5077563;28;20024;-61
2022/01/05 08:36:57;;;;;;;4.90;1.20;;;19.20;94.50;;;;;;5039217;28;20068;-61
2022/01/05 08:39:23;;;;;;;4.43;0.85;;;19.20;94.00;;;;;;5037997;28;20025;-62
2022/01/05 08:41:49;;;;;;;5.85;0.90;;;19.20;93.70;;;;;;5072665;28;20104;-62
2022/01/05 08:44:15;;;;;;;4.70;0.98;;;19.20;93.70;;;;;;5043826;28;20592;-61
2022/01/05 08:46:40;;;;;;;6.00;1.02;;;19.20;94.10;;;;;;5071331;28;20103;-61
2022/01/05 08:49:06;;;;;;;4.07;0.80;;;19.20;93.70;;;;;;5065238;28;20045;-61
2022/01/05 08:51:31;;;;;;;3.95;0.90;;;19.20;94.60;;;;;;5070003;28;20063;-61
2022/01/05 08:53:58;;;;;;;4.22;0.90;;;19.20;93.80;;;;;;5069451;28;20024;-62
2022/01/05 08:56:25;;;;;;;3.60;0.70;;;19.20;93.00;;;;;;5077418;28;20375;-61
2022/01/05 08:58:50;;;;;;;4.25;0.88;;;19.30;94.50;;;;;;5057828;28;20029;-58
2022/01/05 09:01:16;;;;;;;5.00;1.52;;;19.20;94.40;;;;;;5071493;28;20020;-63
2022/01/05 09:03:41;;;;;;;4.20;0.90;;;19.20;94.50;;;;;;5070747;28;20397;-61
2022/01/05 09:06:07;;;;;;;4.72;0.93;;;19.20;92.80;;;;;;5071294;28;20032;-62
2022/01/05 09:08:34;;;;;;;4.55;1.10;;;19.20;92.50;;;;;;5071337;28;20020;-62
2022/01/05 09:10:59;;;;;;;5.30;1.00;;;19.20;93.00;;;;;;5071886;28;20112;-62
2022/01/05 09:13:25;;;;;;;4.10;0.88;;;19.20;93.10;;;;;;5070088;28;20119;-62
2022/01/05 09:15:50;;;;;;;4.43;1.00;;;19.20;92.70;;;;;;5069586;28;20558;-62
2022/01/05 09:18:16;;;;;;;4.97;0.90;;;19.20;92.90;;;;;;5036781;28;20024;-61
2022/01/05 09:20:42;;;;;;;4.72;1.10;;;19.20;93.60;;;;;;5060827;28;20031;-63
2022/01/05 09:23:07;;;;;;;4.60;1.02;;;19.20;95.20;;;;;;4961379;28;20041;-62
2022/01/05 09:25:33;;;;;;;6.80;1.15;;;19.30;95.00;;;;;;4980058;28;20064;-62
2022/01/05 09:27:58;;;;;;;4.05;0.80;;;19.30;92.90;;;;;;5057419;28;20379;-62
2022/01/05 09:30:25;;;;;;;4.90;0.90;;;19.40;93.50;;;;;;5068362;28;20401;-63
2022/01/05 09:32:51;;;;;;;4.28;0.80;;;19.40;93.80;;;;;;5051332;28;20123;-64
2022/01/05 09:35:20;;;;;;;4.32;1.00;;;19.40;93.90;;;;;;5064791;28;20494;-64
2022/01/05 09:37:55;;;;;;;4.75;1.10;;;19.40;94.30;;;;;;5036391;28;20056;-63
2022/01/05 09:43:06;;;;;;;5.57;1.10;;;19.40;95.60;;;;;;5041758;28;20497;-62
2022/01/05 09:45:33;;;;;;;5.45;1.10;;;19.40;96.60;;;;;;5071938;28;20024;-65
2022/01/05 09:48:16;;;;;;;4.22;0.98;;;19.40;96.20;;;;;;5070552;28;20017;-62
2022/01/05 09:50:50;;;;;;;4.72;1.02;;;19.40;96.60;;;;;;5036123;28;20039;-62
2022/01/05 09:53:16;;;;;;;6.03;1.17;;;19.50;96.60;;;;;;5045340;28;20039;-64
2022/01/05 09:55:42;;;;;;;4.43;0.80;;;19.50;96.50;;;;;;5035762;28;20029;-65
2022/01/05 09:58:07;;;;;;;6.05;1.17;;;19.50;95.80;;;;;;5053654;28;20025;-61
2022/01/05 10:00:33;;;;;;;4.63;0.95;;;19.50;96.40;;;;;;5028689;28;20400;-66
2022/01/05 10:02:58;;;;;;;5.88;1.20;;;19.50;99.90;;;;;;5059863;28;20479;-65
2022/01/05 10:05:24;;;;;;;4.53;1.20;;;19.90;95.30;;;;;;5071095;28;20024;-65
2022/01/05 10:07:50;;;;;;;4.93;1.02;;;35.20;68.40;;;;;;5055911;28;20018;-63
2022/01/05 10:10:15;;;;;;;4.75;1.08;;;45.40;23.90;;;;;;5071619;28;20036;-65
2022/01/05 10:12:41;;;;;;;4.20;0.85;;;33.20;30.00;;;;;;5032750;28;20028;-63
2022/01/05 10:15:06;;;;;;;4.88;0.90;;;27.70;39.90;;;;;;5066744;28;20057;-62
2022/01/05 10:17:32;;;;;;;4.72;1.00;;;25.10;45.20;;;;;;5053939;28;20107;-62
2022/01/05 10:20:05;;;;;;;4.00;0.70;;;23.50;50.90;;;;;;5037374;28;20482;-62
2022/01/05 10:22:44;;;;;;;4.55;0.85;;;22.60;55.30;;;;;;5045561;28;20103;-63
2022/01/05 10:25:18;;;;;;;5.68;1.00;;;22.00;60.20;;;;;;5068800;28;20486;-63
2022/01/05 10:27:58;;;;;;;4.85;0.90;;;21.60;63.10;;;;;;5057124;28;20041;-64
2022/01/05 10:30:39;;;;;;;5.68;1.00;;;21.30;71.50;;;;;;5044274;28;20177;-66
2022/01/05 10:33:05;;;;;;;4.65;0.90;;;21.30;69.80;;;;;;5050142;28;20471;-65
2022/01/05 10:35:30;;;;;;;5.15;1.00;;;21.40;72.30;;;;;;5050884;28;20036;-64
2022/01/05 10:38:04;;;;;;;4.55;0.93;;;21.40;70.20;;;;;;5036964;28;20029;-65
2022/01/05 10:40:32;;;;;;;5.82;1.20;;;21.20;69.70;;;;;;5032872;28;20086;-65
2022/01/05 10:42:58;;;;;;;4.45;0.80;;;21.10;71.50;;;;;;5065710;28;20088;-65
2022/01/05 10:45:43;;;;;;;5.80;1.05;;;21.00;79.90;;;;;;5067089;28;20150;-64
2022/01/05 10:48:16;;;;;;;4.35;0.93;;;21.00;76.90;;;;;;5061583;28;20032;-64
2022/01/05 10:50:42;;;;;;;5.72;1.10;;;20.90;75.70;;;;;;5041925;28;20024;-64
2022/01/05 10:53:08;;;;;;;4.97;1.15;;;20.80;75.00;;;;;;5069103;28;20036;-64
2022/01/05 10:55:41;;;;;;;4.40;0.90;;;20.70;77.80;;;;;;5035214;28;20033;-63
2022/01/05 10:58:16;;;;;;;5.78;1.17;;;20.70;78.70;;;;;;5057911;28;20146;-65
2022/01/05 11:00:50;;;;;;;5.05;1.00;;;20.70;80.70;;;;;;5022912;28;20040;-67
2022/01/05 11:03:19;;;;;;;5.70;0.95;;;20.60;80.50;;;;;;5069406;28;20445;-64
2022/01/05 11:06:11;;;;;;;4.32;0.90;;;21.10;93.30;;;;;;5066251;28;20420;-61
2022/01/05 11:09:00;;;;;;;5.45;1.13;;;20.90;91.50;;;;;;5051399;28;20024;-61
2022/01/05 11:11:43;;;;;;;5.38;0.85;;;20.80;91.40;;;;;;5054846;28;20020;-64
2022/01/05 11:14:27;;;;;;;4.45;0.95;;;20.70;90.20;;;;;;4890287;28;20045;-64
2022/01/05 11:16:53;;;;;;;4.90;1.10;;;20.70;85.90;;;;;;5066051;28;20032;-64
2022/01/05 11:19:27;;;;;;;5.80;1.20;;;20.60;86.80;;;;;;5032949;28;20021;-62
2022/01/05 11:22:12;;;;;;;5.07;1.50;;;20.60;89.30;;;;;;5071301;28;20394;-61
2022/01/05 11:24:48;;;;;;;4.43;1.02;;;20.60;89.50;;;;;;5073198;28;20104;-61
2022/01/05 11:27:18;;;;;;;4.82;1.00;;;20.50;88.80;;;;;;5064297;28;20017;-62
2022/01/05 11:29:44;;;;;;;5.00;1.02;;;20.50;90.40;;;;;;5069303;28;20668;-62
2022/01/05 11:32:14;;;;;;;6.93;1.38;;;20.40;90.60;;;;;;5042391;28;20033;-60
2022/01/05 11:34:40;;;;;;;4.35;1.02;;;20.40;90.90;;;;;;5038352;28;20028;-61
2022/01/05 11:37:07;;;;;;;5.20;0.95;;;20.40;92.00;;;;;;5066038;28;20028;-61
2022/01/05 11:39:34;;;;;;;6.22;1.10;;;20.40;93.00;;;;;;5071190;28;20027;-62
2022/01/05 11:42:02;;;;;;;3.95;0.90;;;20.40;92.90;;;;;;5069484;28;20021;-61
2022/01/05 11:44:28;;;;;;;5.32;1.05;;;20.40;92.90;;;;;;5059076;28;20039;-61
2022/01/05 11:46:54;;;;;;;5.55;1.17;;;20.30;92.70;;;;;;5061726;28;20494;-61
2022/01/05 11:51:59;;;;;;;6.40;1.42;;;20.30;93.30;;;;;;5060591;28;20071;-64
2022/01/05 11:54:30;;;;;;;4.72;1.00;;;20.20;93.40;;;;;;5065893;28;20021;-65
2022/01/05 11:57:00;;;;;;;5.03;1.00;;;20.20;94.10;;;;;;5062239;28;20041;-64
2022/01/05 11:59:34;;;;;;;5.78;1.15;;;20.20;94.10;;;;;;5061475;28;20028;-63
2022/01/05 12:02:17;;;;;;;5.97;1.00;;;20.20;93.90;;;;;;5053357;28;20032;-64
2022/01/05 12:04:52;;;;;;;6.15;1.30;;;20.20;93.50;;;;;;5048680;28;20032;-63
2022/01/05 12:07:34;;;;;;;7.38;1.30;;;20.10;93.60;;;;;;5052387;28;20022;-64
2022/01/05 12:09:59;;;;;;;5.25;1.30;;;20.10;95.40;;;;;;5031774;28;20108;-64
2022/01/05 12:12:27;;;;;;;5.90;1.00;;;20.10;94.20;;;;;;5047784;28;20156;-65
2022/01/05 12:14:53;;;;;;;4.32;0.98;;;20.20;94.90;;;;;;5058040;28;20036;-62
2022/01/05 12:17:19;;;;;;;5.88;1.08;;;20.10;94.60;;;;;;5050281;28;20032;-64
2022/01/05 12:19:48;;;;;;;6.72;1.38;;;20.20;93.00;;;;;;5043802;28;20028;-63
2022/01/05 12:22:20;;;;;;;4.93;1.10;;;20.20;93.30;;;;;;5049428;28;20074;-65
2022/01/05 12:25:03;;;;;;;6.43;1.50;;;20.10;91.10;;;;;;5033962;28;20025;-65
2022/01/05 12:27:59;;;;;;;4.53;1.08;;;20.10;93.20;;;;;;5040151;28;20111;-64
2022/01/05 12:30:24;;;;;;;4.43;0.85;;;20.10;92.90;;;;;;5055697;28;20028;-64
2022/01/05 12:33:13;;;;;;;5.65;1.10;;;20.00;94.00;;;;;;5049975;28;20079;-64
2022/01/05 12:35:42;;;;;;;5.03;1.10;;;20.00;93.40;;;;;;5048506;28;20051;-64
2022/01/05 12:38:08;;;;;;;5.82;1.35;;;20.00;93.80;;;;;;5065966;28;20024;-65
2022/01/05 12:40:38;;;;;;;6.97;1.40;;;20.00;93.90;;;;;;5064108;28;20083;-64
2022/01/05 12:43:09;;;;;;;6.40;1.10;;;20.00;94.60;;;;;;5073367;28;20032;-64
2022/01/05 12:45:46;;;;;;;;;;;19.90;93.70;;;;;;5064988;28;20059;-64
2022/01/05 12:48:31;;;;;;;5.10;1.00;;;19.90;95.30;;;;;;5061947;28;19987;-66
2022/01/05 12:51:14;;;;;;;5.45;1.13;;;19.90;94.80;;;;;;5037912;28;20446;-64
2022/01/05 13:05:00;;;;;;;7.03;1.20;;;18.70;99.90;;;;;;5119022;27;20124;-60